createdAt,value
2023-04-25T00:02:17.255Z,9.07
2023-04-25T00:04:44.178Z,9.02
2023-04-25T00:07:11.661Z,8.99
2023-04-25T00:09:38.169Z,8.98
2023-04-25T00:12:05.040Z,8.91
2023-04-25T00:14:34.404Z,8.89
2023-04-25T00:17:00.994Z,8.87
2023-04-25T00:19:28.748Z,8.84
2023-04-25T00:21:56.102Z,8.77
2023-04-25T00:24:22.659Z,8.73
2023-04-25T00:26:49.296Z,8.69
2023-04-25T00:29:15.860Z,8.69
2023-04-25T00:31:42.688Z,8.64
2023-04-25T00:34:09.451Z,8.64
2023-04-25T00:36:36.669Z,8.63
2023-04-25T00:39:05.052Z,8.60
2023-04-25T00:41:31.661Z,8.58
2023-04-25T00:43:59.941Z,8.60
2023-04-25T00:46:26.563Z,8.57
2023-04-25T00:48:53.272Z,8.57
2023-04-25T00:51:21.507Z,8.55
2023-04-25T00:53:50.238Z,8.52
2023-04-25T00:56:17.441Z,8.53
2023-04-25T00:58:44.108Z,8.54
2023-04-25T01:01:11.356Z,8.54
2023-04-25T01:03:43.248Z,8.52
2023-04-25T01:06:10.860Z,8.51
2023-04-25T01:08:40.480Z,8.51
2023-04-25T01:11:07.110Z,8.46
2023-04-25T01:13:34.527Z,8.43
2023-04-25T01:16:02.733Z,8.40
2023-04-25T01:18:29.322Z,8.40
2023-04-25T01:20:56.048Z,8.42
2023-04-25T01:23:23.293Z,8.39
2023-04-25T01:25:52.025Z,8.34
2023-04-25T01:28:19.019Z,8.32
2023-04-25T01:30:46.668Z,8.29
2023-04-25T01:33:14.597Z,8.28
2023-04-25T01:35:41.504Z,8.28
2023-04-25T01:38:08.285Z,8.28
2023-04-25T01:40:39.300Z,8.19
2023-04-25T01:43:06.463Z,8.19
2023-04-25T01:45:36.767Z,8.16
2023-04-25T01:48:03.632Z,8.16
2023-04-25T01:50:30.311Z,8.15
2023-04-25T01:52:57.514Z,8.14
2023-04-25T01:55:24.428Z,8.12
2023-04-25T01:58:01.474Z,8.10
2023-04-25T02:00:46.864Z,8.07
2023-04-25T02:03:13.558Z,8.08
2023-04-25T02:05:40.784Z,8.11
2023-04-25T02:08:09.920Z,8.07
2023-04-25T02:10:37.021Z,8.06
2023-04-25T02:13:10.770Z,8.06
2023-04-25T02:15:44.090Z,8.06
2023-04-25T02:18:16.676Z,8.03
2023-04-25T02:20:44.644Z,8.04
2023-04-25T02:23:11.565Z,8.02
2023-04-25T02:25:38.268Z,8.00
2023-04-25T02:28:04.913Z,8.02
2023-04-25T02:30:31.757Z,8.03
2023-04-25T02:32:58.411Z,8.03
2023-04-25T02:35:25.059Z,8.01
2023-04-25T02:37:54.217Z,8.03
2023-04-25T02:40:20.845Z,8.06
2023-04-25T02:42:47.737Z,8.03
2023-04-25T02:45:14.873Z,8.05
2023-04-25T02:47:41.547Z,8.06
2023-04-25T02:50:08.347Z,8.06
2023-04-25T02:52:35.826Z,8.07
2023-04-25T02:55:13.725Z,8.08
2023-04-25T02:57:42.065Z,8.09
2023-04-25T03:00:12.182Z,8.07
2023-04-25T03:02:39.009Z,8.09
2023-04-25T03:05:06.476Z,8.04
2023-04-25T03:07:33.236Z,8.04
2023-04-25T03:10:00.053Z,8.03
2023-04-25T03:12:26.981Z,8.00
2023-04-25T03:14:53.761Z,7.98
2023-04-25T03:17:21.170Z,7.95
2023-04-25T03:19:49.784Z,7.90
2023-04-25T03:22:16.526Z,7.85
2023-04-25T03:24:43.119Z,7.84
2023-04-25T03:27:09.970Z,7.80
2023-04-25T03:29:36.535Z,7.78
2023-04-25T03:32:04.284Z,7.75
2023-04-25T03:34:31.029Z,7.71
2023-04-25T03:36:57.609Z,7.71
2023-04-25T03:39:24.185Z,7.70
2023-04-25T03:41:51.417Z,7.67
2023-04-25T03:44:18.839Z,7.68
2023-04-25T03:46:46.037Z,7.67
2023-04-25T03:55:13.453Z,7.68
2023-04-25T03:57:40.192Z,7.66
2023-04-25T04:00:07.748Z,7.61
2023-04-25T04:02:41.961Z,7.64
2023-04-25T04:05:12.220Z,7.63
2023-04-25T04:07:44.726Z,7.63
2023-04-25T04:10:13.745Z,7.61
2023-04-25T04:12:41.186Z,7.54
2023-04-25T04:15:09.018Z,7.48
2023-04-25T04:17:36.443Z,7.44
2023-04-25T04:20:04.014Z,7.38
2023-04-25T04:22:32.544Z,7.38
2023-04-25T04:25:06.311Z,7.38
2023-04-25T04:27:54.839Z,7.30
2023-04-25T04:30:37.808Z,7.28
2023-04-25T04:33:07.697Z,7.29
2023-04-25T04:35:34.352Z,7.31
2023-04-25T04:38:01.222Z,7.31
2023-04-25T04:40:32.646Z,7.30
2023-04-25T04:43:10.600Z,7.28
2023-04-25T04:45:57.409Z,7.29
2023-04-25T04:48:33.066Z,7.23
2023-04-25T04:51:35.971Z,7.18
2023-04-25T04:54:15.789Z,7.10
2023-04-25T04:57:00.743Z,7.06
2023-04-25T04:59:37.370Z,7.02
2023-04-25T05:02:14.231Z,6.98
2023-04-25T05:04:52.248Z,6.97
2023-04-25T05:07:48.749Z,6.93
2023-04-25T05:10:45.188Z,6.91
2023-04-25T05:13:20.141Z,6.89
2023-04-25T05:16:05.837Z,6.88
2023-04-25T05:18:49.195Z,6.85
2023-04-25T05:21:44.327Z,6.80
2023-04-25T05:24:25.277Z,6.76
2023-04-25T05:27:11.858Z,6.74
2023-04-25T05:29:49.654Z,6.72
2023-04-25T05:32:48.555Z,6.67
2023-04-25T05:35:15.593Z,6.65
2023-04-25T05:37:46.970Z,6.64
2023-04-25T05:40:15.494Z,6.62
2023-04-25T05:42:45.064Z,6.60
2023-04-25T05:45:41.638Z,6.55
2023-04-25T05:48:21.974Z,6.51
2023-04-25T05:50:58.401Z,6.50
2023-04-25T05:53:43.566Z,6.52
2023-04-25T05:56:10.151Z,6.53
2023-04-25T05:58:36.717Z,6.51
2023-04-25T06:01:03.632Z,6.50
2023-04-25T06:03:30.697Z,6.51
2023-04-25T06:05:58.094Z,6.49
2023-04-25T06:08:26.193Z,6.53
2023-04-25T06:10:52.948Z,6.55
2023-04-25T06:13:19.519Z,6.51
2023-04-25T06:15:46.878Z,6.53
2023-04-25T06:18:13.441Z,6.52
2023-04-25T06:20:40.042Z,6.54
2023-04-25T06:23:07.044Z,6.55
2023-04-25T06:25:42.873Z,6.60
2023-04-25T06:28:09.537Z,6.64
2023-04-25T06:30:36.980Z,6.66
2023-04-25T06:33:09.448Z,6.66
2023-04-25T06:35:36.137Z,6.66
2023-04-25T06:38:02.900Z,6.63
2023-04-25T06:40:30.467Z,6.70
2023-04-25T06:42:57.130Z,6.75
2023-04-25T06:45:39.335Z,6.80
2023-04-25T06:48:07.871Z,6.84
2023-04-25T06:50:35.070Z,6.81
2023-04-25T06:53:02.076Z,6.78
2023-04-25T06:55:29.335Z,6.78
2023-04-25T06:58:04.686Z,6.79
2023-04-25T07:00:49.417Z,6.79
2023-04-25T07:03:17.346Z,6.79
2023-04-25T07:05:46.110Z,6.79
2023-04-25T07:08:12.844Z,6.81
2023-04-25T07:10:39.562Z,6.78
2023-04-25T07:13:06.746Z,6.82
2023-04-25T07:15:33.840Z,6.84
2023-04-25T07:18:00.920Z,6.88
2023-04-25T07:20:28.220Z,6.87
2023-04-25T07:22:56.108Z,6.89
2023-04-25T07:25:23.056Z,6.94
2023-04-25T07:27:49.986Z,6.95
2023-04-25T07:30:19.048Z,6.96
2023-04-25T07:32:45.928Z,6.99
2023-04-25T07:35:15.878Z,7.02
2023-04-25T07:37:43.447Z,7.07
2023-04-25T07:40:13.334Z,7.15
2023-04-25T07:42:44.924Z,7.20
2023-04-25T07:45:12.635Z,7.21
2023-04-25T07:47:39.830Z,7.26
2023-04-25T07:50:07.323Z,7.31
2023-04-25T07:52:34.410Z,7.29
2023-04-25T07:55:08.489Z,7.25
2023-04-25T07:57:54.650Z,7.17
2023-04-25T08:00:21.478Z,7.16
2023-04-25T08:02:49.116Z,7.19
2023-04-25T08:05:17.242Z,7.21
2023-04-25T08:07:48.601Z,7.19
2023-04-25T08:10:15.280Z,7.20
2023-04-25T08:12:42.285Z,7.22
2023-04-25T08:15:09.622Z,7.21
2023-04-25T08:17:38.432Z,7.19
2023-04-25T08:20:07.217Z,7.18
2023-04-25T08:22:34.407Z,7.16
2023-04-25T08:25:16.000Z,7.16
2023-04-25T08:27:44.973Z,7.07
2023-04-25T08:30:12.975Z,7.02
2023-04-25T08:32:40.642Z,7.07
2023-04-25T08:35:18.369Z,7.15
2023-04-25T08:37:45.136Z,7.22
2023-04-25T08:40:15.925Z,7.29
2023-04-25T08:42:58.672Z,7.38
2023-04-25T08:45:30.766Z,7.39
2023-04-25T08:47:57.775Z,7.43
2023-04-25T08:50:26.863Z,7.40
2023-04-25T08:52:54.818Z,7.40
2023-04-25T08:55:23.331Z,7.36
2023-04-25T08:57:55.266Z,7.35
2023-04-25T09:00:23.375Z,7.34
2023-04-25T09:02:50.627Z,7.36
2023-04-25T09:05:21.440Z,7.38
2023-04-25T09:07:50.705Z,7.39
2023-04-25T09:10:17.909Z,7.33
2023-04-25T09:12:44.768Z,7.33
2023-04-25T09:15:13.153Z,7.36
2023-04-25T09:18:11.427Z,7.41
2023-04-25T09:20:59.553Z,7.42
2023-04-25T09:23:28.696Z,7.48
2023-04-25T09:25:55.307Z,7.42
2023-04-25T09:28:30.898Z,7.44
2023-04-25T09:30:59.130Z,7.44
2023-04-25T09:33:43.334Z,7.50
2023-04-25T09:36:13.683Z,7.57
2023-04-25T09:38:56.593Z,7.64
2023-04-25T09:41:28.989Z,7.73
2023-04-25T09:43:59.750Z,7.76
2023-04-25T09:46:36.901Z,7.72
2023-04-25T09:49:08.505Z,7.72
2023-04-25T09:51:55.515Z,7.77
2023-04-25T09:54:23.999Z,7.87
2023-04-25T09:57:01.364Z,7.94
2023-04-25T09:59:32.027Z,7.99
2023-04-25T10:01:59.703Z,8.06
2023-04-25T10:04:35.707Z,8.09
2023-04-25T10:07:11.497Z,8.13
2023-04-25T10:09:42.489Z,8.21
2023-04-25T10:12:09.176Z,8.23
2023-04-25T10:14:36.322Z,8.27
2023-04-25T10:17:03.419Z,8.32
2023-04-25T10:19:30.321Z,8.31
2023-04-25T10:22:26.414Z,8.29
2023-04-25T10:24:53.504Z,8.32
2023-04-25T10:27:20.576Z,8.36
2023-04-25T10:30:02.867Z,8.38
2023-04-25T10:32:31.846Z,8.36
2023-04-25T10:34:58.581Z,8.32
2023-04-25T10:37:25.415Z,8.27
2023-04-25T10:39:53.763Z,8.25
2023-04-25T10:42:20.386Z,8.25
2023-04-25T10:45:16.378Z,8.26
2023-04-25T10:47:45.826Z,8.28
2023-04-25T10:50:16.509Z,8.33
2023-04-25T10:52:44.568Z,8.43
2023-04-25T10:55:11.372Z,8.59
2023-04-25T10:57:43.799Z,8.75
2023-04-25T11:00:19.195Z,8.84
2023-04-25T11:02:52.388Z,8.88
2023-04-25T11:05:23.383Z,8.86
2023-04-25T11:08:00.019Z,8.93
2023-04-25T11:10:37.029Z,8.93
2023-04-25T11:13:06.685Z,8.98
2023-04-25T11:15:33.373Z,9.09
2023-04-25T11:18:00.152Z,9.23
2023-04-25T11:20:28.962Z,9.35
2023-04-25T11:22:58.925Z,9.39
2023-04-25T11:25:26.179Z,9.41
2023-04-25T11:27:55.159Z,9.38
2023-04-25T11:30:23.028Z,9.37
2023-04-25T11:32:50.408Z,9.39
2023-04-25T11:35:17.099Z,9.41
2023-04-25T11:37:44.410Z,9.44
2023-04-25T11:40:12.082Z,9.44
2023-04-25T11:42:43.665Z,9.38
2023-04-25T11:45:11.111Z,9.38
2023-04-25T11:47:38.246Z,9.43
2023-04-25T11:50:07.883Z,9.47
2023-04-25T11:52:42.739Z,9.48
2023-04-25T11:55:11.480Z,9.45
2023-04-25T11:57:40.611Z,9.42
2023-04-25T12:00:08.914Z,9.40
2023-04-25T12:02:46.516Z,9.35
2023-04-25T12:05:31.135Z,9.36
2023-04-25T12:08:11.309Z,9.35
2023-04-25T12:10:42.630Z,9.27
2023-04-25T12:13:28.405Z,9.24
2023-04-25T12:15:56.563Z,9.18
2023-04-25T12:18:28.032Z,9.14
2023-04-25T12:20:55.315Z,9.14
2023-04-25T12:23:29.368Z,9.08
2023-04-25T12:25:56.661Z,9.04
2023-04-25T12:28:25.242Z,9.00
2023-04-25T12:30:56.596Z,8.98
2023-04-25T12:33:23.914Z,8.95
2023-04-25T12:35:50.504Z,8.95
2023-04-25T12:38:31.178Z,8.94
2023-04-25T12:40:58.957Z,8.88
2023-04-25T12:43:26.084Z,8.77
2023-04-25T12:45:54.008Z,8.68
2023-04-25T12:48:21.577Z,8.62
2023-04-25T12:50:49.567Z,8.59
2023-04-25T12:53:17.453Z,8.55
2023-04-25T12:55:46.487Z,8.54
2023-04-25T12:58:17.750Z,8.59
2023-04-25T13:00:45.380Z,8.62
2023-04-25T13:03:12.770Z,8.67
2023-04-25T13:05:39.668Z,8.72
2023-04-25T13:08:06.465Z,8.74
2023-04-25T13:10:34.520Z,8.77
2023-04-25T13:13:01.606Z,8.80
2023-04-25T13:15:29.177Z,8.82
2023-04-25T13:17:56.563Z,8.77
2023-04-25T13:20:23.455Z,8.75
2023-04-25T13:22:50.221Z,8.70
2023-04-25T13:25:16.873Z,8.68
2023-04-25T13:27:44.783Z,8.66
2023-04-25T13:30:11.824Z,8.69
2023-04-25T13:32:39.538Z,8.73
2023-04-25T13:35:11.322Z,8.79
2023-04-25T13:37:39.219Z,8.78
2023-04-25T13:40:09.992Z,8.78
2023-04-25T13:42:37.553Z,8.81
2023-04-25T13:45:04.830Z,8.85
2023-04-25T13:47:31.779Z,8.86
2023-04-25T13:49:58.527Z,8.87
2023-04-25T13:52:26.304Z,8.90
2023-04-25T13:54:52.975Z,8.90
2023-04-25T13:57:20.177Z,8.91
2023-04-25T13:59:47.000Z,8.88
2023-04-25T14:02:13.861Z,8.91
2023-04-25T14:04:41.242Z,8.89
2023-04-25T14:07:08.020Z,8.89
2023-04-25T14:09:35.193Z,8.90
2023-04-25T14:12:02.575Z,8.93
2023-04-25T14:14:29.278Z,8.95
2023-04-25T14:16:57.499Z,8.91
2023-04-25T14:19:25.058Z,8.89
2023-04-25T14:21:51.601Z,8.86
2023-04-25T14:24:18.270Z,8.83
2023-04-25T14:26:45.067Z,8.85
2023-04-25T14:29:12.166Z,8.84
2023-04-25T14:31:40.511Z,8.84
2023-04-25T14:34:07.833Z,8.89
2023-04-25T14:36:36.398Z,8.92
2023-04-25T14:39:10.623Z,8.88
2023-04-25T14:41:40.626Z,8.81
2023-04-25T14:44:07.924Z,8.81
2023-04-25T14:46:34.951Z,8.81
2023-04-25T14:49:02.667Z,8.80
2023-04-25T14:51:29.964Z,8.75
2023-04-25T14:53:56.685Z,8.77
2023-04-25T14:56:23.313Z,8.77
2023-04-25T14:58:50.299Z,8.75
2023-04-25T15:01:17.180Z,8.77
2023-04-25T15:03:44.083Z,8.76
2023-04-25T15:06:11.103Z,8.74
2023-04-25T15:08:37.714Z,8.77
2023-04-25T15:11:04.504Z,8.76
2023-04-25T15:13:31.463Z,8.71
2023-04-25T15:15:58.191Z,8.68
2023-04-25T15:18:25.122Z,8.71
2023-04-25T15:20:52.718Z,8.75
2023-04-25T15:23:29.848Z,8.78
2023-04-25T15:26:06.429Z,8.78
2023-04-25T15:28:38.996Z,8.77
2023-04-25T15:31:05.938Z,8.78
2023-04-25T15:33:32.698Z,8.79
2023-04-25T15:35:59.534Z,8.77
2023-04-25T15:38:26.144Z,8.77
2023-04-25T15:40:52.942Z,8.77
2023-04-25T15:43:19.536Z,8.74
2023-04-25T15:45:48.249Z,8.77
2023-04-25T15:48:17.966Z,8.78
2023-04-25T15:50:44.874Z,8.80
2023-04-25T15:53:11.980Z,8.80
2023-04-25T15:55:39.468Z,8.82
2023-04-25T15:58:06.655Z,8.84
2023-04-25T16:00:35.610Z,8.81
2023-04-25T16:03:02.887Z,8.80
2023-04-25T16:05:29.833Z,8.81
2023-04-25T16:07:56.458Z,8.82
2023-04-25T16:10:23.162Z,8.83
2023-04-25T16:12:50.163Z,8.84
2023-04-25T16:15:17.837Z,8.85
2023-04-25T16:17:44.740Z,8.87
2023-04-25T16:20:12.831Z,8.88
2023-04-25T16:22:41.362Z,8.89
2023-04-25T16:25:08.695Z,8.91
2023-04-25T16:27:36.952Z,8.90
2023-04-25T16:30:07.779Z,8.85
2023-04-25T16:32:35.207Z,8.84
2023-04-25T16:35:02.015Z,8.84
2023-04-25T16:37:28.585Z,8.84
2023-04-25T16:39:55.258Z,8.81
2023-04-25T16:42:21.890Z,8.74
2023-04-25T16:44:48.420Z,8.72
2023-04-25T16:47:19.502Z,8.71
2023-04-25T16:49:46.891Z,8.71
2023-04-25T16:52:14.442Z,8.71
2023-04-25T16:54:41.077Z,8.68
2023-04-25T16:57:10.609Z,8.64
2023-04-25T16:59:40.152Z,8.64
2023-04-25T17:02:11.746Z,8.62
2023-04-25T17:04:39.137Z,8.60
2023-04-25T17:07:06.578Z,8.57
2023-04-25T17:09:33.262Z,8.53
2023-04-25T17:11:59.919Z,8.52
2023-04-25T17:14:26.543Z,8.49
2023-04-25T17:16:53.187Z,8.45
2023-04-25T17:19:20.985Z,8.44
2023-04-25T17:21:47.694Z,8.39
2023-04-25T17:24:16.077Z,8.35
2023-04-25T17:26:42.765Z,8.28
2023-04-25T17:29:09.866Z,8.24
2023-04-25T17:31:37.230Z,8.19
2023-04-25T17:34:04.476Z,8.15
2023-04-25T17:36:31.191Z,8.09
2023-04-25T17:38:57.758Z,8.04
2023-04-25T17:41:24.685Z,8.00
2023-04-25T17:43:51.270Z,7.91
2023-04-25T17:46:18.057Z,7.86
2023-04-25T17:48:44.717Z,7.80
2023-04-25T17:51:11.368Z,7.74
2023-04-25T17:53:37.897Z,7.73
2023-04-25T17:56:06.909Z,7.69
2023-04-25T17:58:39.735Z,7.62
2023-04-25T18:01:06.375Z,7.54
2023-04-25T18:03:33.159Z,7.45
2023-04-25T18:05:59.792Z,7.37
2023-04-25T18:08:26.371Z,7.26
2023-04-25T18:10:52.948Z,7.22
2023-04-25T18:13:19.605Z,7.22
2023-04-25T18:15:46.338Z,7.22
2023-04-25T18:18:19.628Z,7.22
2023-04-25T18:20:47.104Z,7.22
2023-04-25T18:23:14.103Z,7.21
2023-04-25T18:25:41.219Z,7.22
2023-04-25T18:28:08.925Z,7.21
2023-04-25T18:30:37.935Z,7.19
2023-04-25T18:33:05.183Z,7.18
2023-04-25T18:35:31.980Z,7.16
2023-04-25T18:47:16.407Z,6.88
2023-04-25T18:49:43.311Z,6.82
2023-04-25T18:52:11.626Z,6.82
2023-04-25T18:54:38.423Z,6.81
2023-04-25T18:57:05.891Z,6.81
2023-04-25T18:59:32.923Z,6.85
2023-04-25T19:02:04.409Z,6.87
2023-04-25T19:04:31.686Z,6.89
2023-04-25T19:06:59.158Z,6.93
2023-04-25T19:09:25.939Z,6.94
2023-04-25T19:11:52.905Z,6.95
2023-04-25T19:14:19.458Z,6.93
2023-04-25T19:16:46.160Z,6.91
2023-04-25T19:19:12.837Z,6.88
2023-04-25T19:21:39.865Z,6.84
2023-04-25T19:24:06.935Z,6.82
2023-04-25T19:26:33.693Z,6.76
2023-04-25T19:29:14.314Z,6.70
2023-04-25T19:31:43.460Z,6.64
2023-04-25T19:34:28.133Z,6.58
2023-04-25T19:37:14.646Z,6.52
2023-04-25T19:40:06.929Z,6.46
2023-04-25T19:42:33.555Z,6.43
2023-04-25T19:45:02.452Z,6.37
2023-04-25T19:47:29.075Z,6.32
2023-04-25T19:49:58.015Z,6.30
2023-04-25T19:52:24.914Z,6.28
2023-04-25T19:54:51.752Z,6.25
2023-04-25T19:57:24.194Z,6.22
2023-04-25T19:59:50.943Z,6.20
2023-04-25T20:02:17.839Z,6.16
2023-04-25T20:04:44.545Z,6.12
2023-04-25T20:07:11.287Z,6.10
2023-04-25T20:09:38.959Z,6.05
2023-04-25T20:12:05.817Z,6.02
2023-04-25T20:14:38.113Z,5.98
2023-04-25T20:17:10.476Z,5.95
2023-04-25T20:19:37.608Z,5.87
2023-04-25T20:22:08.448Z,5.84
2023-04-25T20:24:35.409Z,5.81
2023-04-25T20:27:10.267Z,5.77
2023-04-25T20:29:36.954Z,5.74
2023-04-25T20:32:03.968Z,5.73
2023-04-25T20:34:31.143Z,5.67
2023-04-25T20:36:57.857Z,5.66
2023-04-25T20:39:24.420Z,5.65
2023-04-25T20:41:52.099Z,5.63
2023-04-25T20:44:21.942Z,5.64
2023-04-25T20:46:49.253Z,5.63
2023-04-25T20:49:16.550Z,5.63
2023-04-25T20:51:43.791Z,5.60
2023-04-25T20:54:11.121Z,5.56
2023-04-25T20:56:38.355Z,5.54
2023-04-25T20:59:04.984Z,5.52
2023-04-25T21:01:31.807Z,5.49
2023-04-25T21:03:58.550Z,5.47
2023-04-25T21:06:27.061Z,5.44
2023-04-25T21:08:53.752Z,5.36
2023-04-25T21:11:20.659Z,5.31
2023-04-25T21:13:47.276Z,5.28
2023-04-25T21:16:13.972Z,5.23
2023-04-25T21:18:40.631Z,5.18
2023-04-25T21:21:07.236Z,5.16
2023-04-25T21:23:34.111Z,5.15
2023-04-25T21:26:00.657Z,5.12
2023-04-25T21:28:27.512Z,5.14
2023-04-25T21:30:54.182Z,5.15
2023-04-25T21:33:26.462Z,5.17
2023-04-25T21:35:53.030Z,5.21
2023-04-25T21:43:45.803Z,5.34
2023-04-25T21:46:23.116Z,5.39
2023-04-25T21:48:50.823Z,5.44
2023-04-25T21:51:18.205Z,5.49
2023-04-25T21:53:44.837Z,5.53
2023-04-25T21:56:11.814Z,5.54
2023-04-25T21:58:38.420Z,5.56
2023-04-25T22:01:05.039Z,5.59
2023-04-25T22:03:32.263Z,5.60
2023-04-25T22:05:59.106Z,5.63
2023-04-25T22:08:25.701Z,5.62
2023-04-25T22:10:54.516Z,5.60
2023-04-25T22:13:22.062Z,5.57
2023-04-25T22:15:49.104Z,5.57
2023-04-25T22:18:15.928Z,5.56
2023-04-25T22:20:43.794Z,5.53
2023-04-25T22:23:11.328Z,5.51
2023-04-25T22:25:37.986Z,5.50
2023-04-25T22:28:04.601Z,5.46
2023-04-25T22:30:32.043Z,5.43
2023-04-25T22:32:58.677Z,5.38
2023-04-25T22:35:25.617Z,5.35
2023-04-25T22:37:52.361Z,5.31
2023-04-25T22:40:19.120Z,5.29
2023-04-25T22:42:46.215Z,5.28
2023-04-25T22:45:14.097Z,5.24
2023-04-25T22:47:41.236Z,5.23
2023-04-25T22:50:12.492Z,5.26
2023-04-25T22:52:39.768Z,5.29
2023-04-25T22:55:06.603Z,5.28
2023-04-25T22:57:35.605Z,5.28
2023-04-25T23:00:07.559Z,5.30
2023-04-25T23:02:35.156Z,5.29
2023-04-25T23:05:01.969Z,5.28
2023-04-25T23:07:28.576Z,5.30
2023-04-25T23:09:55.108Z,5.28
2023-04-25T23:12:22.126Z,5.26
2023-04-25T23:14:50.343Z,5.26
2023-04-25T23:17:16.979Z,5.25
2023-04-25T23:19:44.615Z,5.24
2023-04-25T23:22:11.511Z,5.24
2023-04-25T23:24:38.568Z,5.26
2023-04-25T23:27:05.195Z,5.25
2023-04-25T23:29:33.427Z,5.24
2023-04-25T23:32:03.446Z,5.23
2023-04-25T23:34:31.076Z,5.20
2023-04-25T23:37:00.787Z,5.19
2023-04-25T23:39:27.975Z,5.17
2023-04-25T23:41:55.089Z,5.17
2023-04-25T23:44:22.029Z,5.16
2023-04-25T23:46:49.270Z,5.12
2023-04-25T23:49:15.816Z,5.12
2023-04-25T23:51:42.499Z,5.11
2023-04-25T23:54:09.030Z,5.13
2023-04-25T23:56:35.542Z,5.07
2023-04-25T23:59:03.191Z,5.05
